Terminal Aerodrome Forecast
Issued by NWS Billings, MT

Home | Current Version | Previous Version | Graphics & Text | Print | Product List | Glossary On
Versions: 1 2 3 4 5 6 7 8 9 10 11 12 13 14 15 16
000
FTUS45 KBYZ 250948 AAA
TAFMLS
TAF AMD
KMLS 250948Z 2510/2606 32009KT 6SM -SHRA BKN008
     FM251500 33009KT P6SM VCSH SCT025 OVC050
     FM251800 32009KT P6SM VCTS BKN050CB
     FM260300 28007KT P6SM SCT070=

USA.gov is the U.S. government's official web portal to all federal, state and local government web resources and services.